Die Wetterstation in Yach-Sommerrain 515m üNN
Wetterdaten: aktuell Mittwoch, 06.05.2026 05:25
Datum Zeit Temp. A. Feuchte A. Luftdruck Regen Wind Richtung Richtung Solar Taupunkt Windchill Windböen Empfang
06.05.2026 05:25 12,1 °C 82 % 1010,4 hPa 0,0 l/m² 2,3 km/h (1 Bft) O-SO 116 ° 0 W/m² 9,1 °C 12,1 °C 6,4 km/h (2 Bft) 100 %
06.05.2026 05:20 12,1 °C 82 % 1010,3 hPa 0,0 l/m² 1,7 km/h (1 Bft) O-SO 108 ° 0 W/m² 9,1 °C 12,1 °C 4,8 km/h (1 Bft) 100 %
06.05.2026 05:15 11,9 °C 83 % 1010,4 hPa 0,0 l/m² 2,0 km/h (1 Bft) N-NW 341 ° 0 W/m² 9,1 °C 11,9 °C 16,1 km/h (3 Bft) 100 %
06.05.2026 05:10 11,8 °C 83 % 1010,5 hPa 0,0 l/m² 2,7 km/h (1 Bft) N-NO 33 ° 0 W/m² 9,0 °C 11,8 °C 8,0 km/h (2 Bft) 100 %
06.05.2026 05:05 11,7 °C 84 % 1010,6 hPa 0,0 l/m² 1,9 km/h (1 Bft) N-NO 27 ° 0 W/m² 9,1 °C 11,7 °C 4,8 km/h (1 Bft) 100 %
06.05.2026 05:00 11,8 °C 84 % 1010,6 hPa 0,0 l/m² 1,5 km/h (1 Bft) NO 34 ° 0 W/m² 9,2 °C 11,8 °C 4,8 km/h (1 Bft) 100 %
06.05.2026 04:55 11,9 °C 84 % 1010,7 hPa 0,0 l/m² 2,4 km/h (1 Bft) NO 37 ° 0 W/m² 9,3 °C 11,9 °C 4,8 km/h (1 Bft) 100 %
06.05.2026 04:50 11,9 °C 83 % 1010,7 hPa 0,0 l/m² 1,8 km/h (1 Bft) NO 34 ° 0 W/m² 9,1 °C 11,9 °C 4,8 km/h (1 Bft) 100 %
06.05.2026 04:45 11,7 °C 82 % 1010,7 hPa 0,0 l/m² 2,2 km/h (1 Bft) O-SO 109 ° 0 W/m² 8,7 °C 11,7 °C 9,7 km/h (2 Bft) 100 %
06.05.2026 04:40 11,7 °C 83 % 1010,8 hPa 0,0 l/m² 1,5 km/h (1 Bft) N 4 ° 0 W/m² 8,9 °C 11,7 °C 6,4 km/h (2 Bft) 100 %
06.05.2026 04:35 11,9 °C 83 % 1010,8 hPa 0,0 l/m² 2,8 km/h (1 Bft) N-NW 333 ° 0 W/m² 9,1 °C 11,9 °C 4,8 km/h (1 Bft) 100 %
06.05.2026 04:30 11,9 °C 82 % 1010,8 hPa 0,0 l/m² 2,1 km/h (1 Bft) NW 318 ° 0 W/m² 8,9 °C 11,9 °C 4,8 km/h (1 Bft) 100 %
06.05.2026 04:25 11,9 °C 82 % 1010,8 hPa 0,0 l/m² 1,9 km/h (1 Bft) W 276 ° 0 W/m² 8,9 °C 11,9 °C 9,7 km/h (2 Bft) 100 %
06.05.2026 04:20 11,8 °C 82 % 1010,9 hPa 0,0 l/m² 2,1 km/h (1 Bft) O-NO 64 ° 0 W/m² 8,8 °C 11,8 °C 6,4 km/h (2 Bft) 100 %
06.05.2026 04:15 11,7 °C 82 % 1011,0 hPa 0,0 l/m² 1,7 km/h (1 Bft) S-SO 160 ° 0 W/m² 8,7 °C 11,7 °C 6,4 km/h (2 Bft) 100 %
06.05.2026 04:10 11,7 °C 82 % 1010,9 hPa 0,0 l/m² 1,6 km/h (1 Bft) NW 320 ° 0 W/m² 8,7 °C 11,7 °C 3,2 km/h (1 Bft) 100 %
06.05.2026 04:05 11,7 °C 82 % 1011,0 hPa 0,0 l/m² 2,8 km/h (1 Bft) NW 318 ° 0 W/m² 8,7 °C 11,7 °C 8,0 km/h (2 Bft) 100 %
06.05.2026 04:00 11,6 °C 83 % 1011,0 hPa 0,0 l/m² 2,7 km/h (1 Bft) NW 325 ° 0 W/m² 8,8 °C 11,6 °C 4,8 km/h (1 Bft) 100 %
06.05.2026 03:55 11,7 °C 83 % 1011,2 hPa 0,0 l/m² 2,9 km/h (1 Bft) NW 321 ° 0 W/m² 8,9 °C 11,7 °C 6,4 km/h (2 Bft) 100 %
06.05.2026 03:50 11,9 °C 83 % 1011,1 hPa 0,0 l/m² 2,2 km/h (1 Bft) NO 54 ° 0 W/m² 9,1 °C 11,9 °C 3,2 km/h (1 Bft) 100 %
06.05.2026 03:45 11,9 °C 82 % 1011,1 hPa 0,0 l/m² 1,6 km/h (1 Bft) NO 54 ° 0 W/m² 8,9 °C 11,9 °C 3,2 km/h (1 Bft) 100 %
06.05.2026 03:40 11,9 °C 82 % 1011,3 hPa 0,0 l/m² 2,3 km/h (1 Bft) NO 56 ° 0 W/m² 8,9 °C 11,9 °C 8,0 km/h (2 Bft) 100 %
06.05.2026 03:35 11,9 °C 82 % 1011,2 hPa 0,0 l/m² 1,9 km/h (1 Bft) N-NW 341 ° 0 W/m² 8,9 °C 11,9 °C 4,8 km/h (1 Bft) 100 %
06.05.2026 03:30 11,8 °C 82 % 1011,4 hPa 0,0 l/m² 3,1 km/h (1 Bft) NW 326 ° 0 W/m² 8,8 °C 11,8 °C 4,8 km/h (1 Bft) 100 %
06.05.2026 03:25 11,8 °C 83 % 1011,5 hPa 0,0 l/m² 1,8 km/h (1 Bft) N-NW 334 ° 0 W/m² 9,0 °C 11,8 °C 4,8 km/h (1 Bft) 100 %
06.05.2026 03:20 11,8 °C 83 % 1011,4 hPa 0,0 l/m² 2,7 km/h (1 Bft) N-NW 332 ° 0 W/m² 9,0 °C 11,8 °C 6,4 km/h (2 Bft) 100 %
06.05.2026 03:15 11,7 °C 83 % 1011,3 hPa 0,0 l/m² 3,2 km/h (1 Bft) N 354 ° 0 W/m² 8,9 °C 11,7 °C 6,4 km/h (2 Bft) 100 %
06.05.2026 03:10 11,6 °C 84 % 1011,3 hPa 0,0 l/m² 3,0 km/h (1 Bft) N-NW 347 ° 0 W/m² 9,0 °C 11,6 °C 6,4 km/h (2 Bft) 100 %
06.05.2026 03:05 11,4 °C 85 % 1011,3 hPa 0,0 l/m² 2,5 km/h (1 Bft) N-NW 330 ° 0 W/m² 9,0 °C 11,4 °C 9,7 km/h (2 Bft) 100 %
06.05.2026 03:00 11,5 °C 85 % 1011,2 hPa 0,0 l/m² 1,9 km/h (1 Bft) N-NW 344 ° 0 W/m² 9,1 °C 11,5 °C 3,2 km/h (1 Bft) 100 %
06.05.2026 02:55 11,6 °C 84 % 1011,3 hPa 0,0 l/m² 2,3 km/h (1 Bft) N-NW 344 ° 0 W/m² 9,0 °C 11,6 °C 4,8 km/h (1 Bft) 100 %
06.05.2026 02:50 11,4 °C 83 % 1011,3 hPa 0,0 l/m² 2,2 km/h (1 Bft) N-NW 344 ° 0 W/m² 8,6 °C 11,4 °C 4,8 km/h (1 Bft) 100 %
06.05.2026 02:45 11,3 °C 85 % 1011,4 hPa 0,0 l/m² 2,4 km/h (1 Bft) N-NW 339 ° 0 W/m² 8,9 °C 11,3 °C 3,2 km/h (1 Bft) 100 %
06.05.2026 02:40 11,3 °C 85 % 1011,4 hPa 0,0 l/m² 2,7 km/h (1 Bft) N-NW 339 ° 0 W/m² 8,9 °C 11,3 °C 4,8 km/h (1 Bft) 100 %
06.05.2026 02:35 11,3 °C 85 % 1011,3 hPa 0,0 l/m² 2,9 km/h (1 Bft) N-NW 337 ° 0 W/m² 8,9 °C 11,3 °C 6,4 km/h (2 Bft) 100 %
06.05.2026 02:30 11,2 °C 85 % 1011,4 hPa 0,0 l/m² 1,3 km/h (1 Bft) N 350 ° 0 W/m² 8,8 °C 11,2 °C 4,8 km/h (1 Bft) 100 %
06.05.2026 02:25 11,2 °C 85 % 1011,5 hPa 0,0 l/m² 2,3 km/h (1 Bft) N 354 ° 0 W/m² 8,8 °C 11,2 °C 4,8 km/h (1 Bft) 100 %
06.05.2026 02:20 11,2 °C 85 % 1011,5 hPa 0,0 l/m² 2,8 km/h (1 Bft) N 354 ° 0 W/m² 8,8 °C 11,2 °C 4,8 km/h (1 Bft) 100 %
06.05.2026 02:15 11,3 °C 84 % 1011,6 hPa 0,0 l/m² 0,4 km/h (0 Bft) N 354 ° 0 W/m² 8,7 °C 11,3 °C 3,2 km/h (1 Bft) 100 %
06.05.2026 02:10 11,4 °C 84 % 1011,6 hPa 0,0 l/m² 2,2 km/h (1 Bft) N 354 ° 0 W/m² 8,8 °C 11,4 °C 6,4 km/h (2 Bft) 100 %
06.05.2026 02:05 11,4 °C 84 % 1011,7 hPa 0,0 l/m² 3,0 km/h (1 Bft) N 354 ° 0 W/m² 8,8 °C 11,4 °C 4,8 km/h (1 Bft) 100 %
06.05.2026 02:00 11,7 °C 84 % 1011,6 hPa 0,0 l/m² 2,4 km/h (1 Bft) N-NO 26 ° 0 W/m² 9,1 °C 11,7 °C 4,8 km/h (1 Bft) 100 %
06.05.2026 01:55 11,8 °C 83 % 1011,7 hPa 0,0 l/m² 3,2 km/h (1 Bft) N-NO 26 ° 0 W/m² 9,0 °C 11,8 °C 4,8 km/h (1 Bft) 100 %
06.05.2026 01:50 11,8 °C 83 % 1011,8 hPa 0,0 l/m² 2,8 km/h (1 Bft) N-NO 26 ° 0 W/m² 9,0 °C 11,8 °C 4,8 km/h (1 Bft) 100 %
06.05.2026 01:45 11,8 °C 82 % 1011,7 hPa 0,0 l/m² 2,3 km/h (1 Bft) N-NO 23 ° 0 W/m² 8,8 °C 11,8 °C 4,8 km/h (1 Bft) 100 %
06.05.2026 01:40 11,8 °C 83 % 1011,9 hPa 0,0 l/m² 2,4 km/h (1 Bft) N-NO 27 ° 0 W/m² 9,0 °C 11,8 °C 4,8 km/h (1 Bft) 100 %
06.05.2026 01:35 11,8 °C 84 % 1012,0 hPa 0,0 l/m² 3,5 km/h (1 Bft) N-NW 339 ° 0 W/m² 9,2 °C 11,8 °C 8,0 km/h (2 Bft) 100 %
06.05.2026 01:30 11,9 °C 83 % 1012,0 hPa 0,0 l/m² 1,8 km/h (1 Bft) NW 312 ° 0 W/m² 9,1 °C 11,9 °C 4,8 km/h (1 Bft) 100 %
06.05.2026 01:25 11,9 °C 83 % 1012,1 hPa 0,0 l/m² 2,5 km/h (1 Bft) NW 310 ° 0 W/m² 9,1 °C 11,9 °C 8,0 km/h (2 Bft) 100 %
06.05.2026 01:20 11,8 °C 83 % 1012,0 hPa 0,0 l/m² 2,3 km/h (1 Bft) N-NW 342 ° 0 W/m² 9,0 °C 11,8 °C 3,2 km/h (1 Bft) 100 %
06.05.2026 01:15 11,8 °C 84 % 1012,1 hPa 0,0 l/m² 3,5 km/h (1 Bft) N 354 ° 0 W/m² 9,2 °C 11,8 °C 11,3 km/h (2 Bft) 100 %
06.05.2026 01:10 11,7 °C 84 % 1012,1 hPa 0,0 l/m² 2,8 km/h (1 Bft) NO 34 ° 0 W/m² 9,1 °C 11,7 °C 4,8 km/h (1 Bft) 100 %
06.05.2026 01:05 11,8 °C 84 % 1012,1 hPa 0,0 l/m² 1,9 km/h (1 Bft) NO 44 ° 0 W/m² 9,2 °C 11,8 °C 6,4 km/h (2 Bft) 100 %
06.05.2026 01:00 11,7 °C 84 % 1012,1 hPa 0,0 l/m² 3,0 km/h (1 Bft) O-NO 58 ° 0 W/m² 9,1 °C 11,7 °C 14,5 km/h (3 Bft) 100 %
06.05.2026 00:55 11,4 °C 87 % 1012,2 hPa 0,0 l/m² 3,3 km/h (1 Bft) O-NO 75 ° 0 W/m² 9,3 °C 11,4 °C 6,4 km/h (2 Bft) 100 %
06.05.2026 00:50 11,4 °C 86 % 1012,2 hPa 0,0 l/m² 1,8 km/h (1 Bft) O-NO 71 ° 0 W/m² 9,1 °C 11,4 °C 8,0 km/h (2 Bft) 100 %
06.05.2026 00:45 11,5 °C 87 % 1012,2 hPa 0,0 l/m² 2,8 km/h (1 Bft) O-NO 60 ° 0 W/m² 9,4 °C 11,5 °C 6,4 km/h (2 Bft) 100 %
06.05.2026 00:40 11,5 °C 87 % 1012,1 hPa 0,0 l/m² 2,0 km/h (1 Bft) N-NW 345 ° 0 W/m² 9,4 °C 11,5 °C 4,8 km/h (1 Bft) 100 %
06.05.2026 00:35 11,6 °C 87 % 1012,2 hPa 0,0 l/m² 3,4 km/h (1 Bft) N 349 ° 0 W/m² 9,5 °C 11,6 °C 4,8 km/h (1 Bft) 100 %
06.05.2026 00:30 11,7 °C 87 % 1012,2 hPa 0,0 l/m² 3,7 km/h (1 Bft) N 354 ° 0 W/m² 9,6 °C 11,7 °C 6,4 km/h (2 Bft) 100 %
06.05.2026 00:25 11,8 °C 86 % 1012,2 hPa 0,0 l/m² 2,6 km/h (1 Bft) N-NW 347 ° 0 W/m² 9,5 °C 11,8 °C 4,8 km/h (1 Bft) 100 %
06.05.2026 00:20 11,9 °C 85 % 1012,2 hPa 0,0 l/m² 2,8 km/h (1 Bft) N-NW 348 ° 0 W/m² 9,5 °C 11,9 °C 4,8 km/h (1 Bft) 100 %
06.05.2026 00:15 12,2 °C 85 % 1012,2 hPa 0,0 l/m² 2,1 km/h (1 Bft) N-NW 335 ° 0 W/m² 9,8 °C 12,2 °C 4,8 km/h (1 Bft) 100 %
06.05.2026 00:10 12,2 °C 84 % 1012,2 hPa 0,0 l/m² 2,3 km/h (1 Bft) N-NW 335 ° 0 W/m² 9,6 °C 12,2 °C 4,8 km/h (1 Bft) 100 %
06.05.2026 00:05 12,2 °C 83 % 1012,3 hPa 0,0 l/m² 1,7 km/h (1 Bft) N-NW 335 ° 0 W/m² 9,4 °C 12,2 °C 3,2 km/h (1 Bft) 100 %
06.05.2026 00:00 12,1 °C 84 % 1012,5 hPa 0,0 l/m² 2,0 km/h (1 Bft) W-NW 293 ° 0 W/m² 9,5 °C 12,1 °C 4,8 km/h (1 Bft) 100 %
05.05.2026 23:55 12,1 °C 85 % 1012,3 hPa 0,0 l/m² 3,0 km/h (1 Bft) N-NW 339 ° 0 W/m² 9,7 °C 12,1 °C 4,8 km/h (1 Bft) 100 %
05.05.2026 23:50 12,2 °C 85 % 1012,3 hPa 0,0 l/m² 1,7 km/h (1 Bft) O-NO 58 ° 0 W/m² 9,8 °C 12,2 °C 4,8 km/h (1 Bft) 100 %
05.05.2026 23:45 12,2 °C 84 % 1012,4 hPa 0,0 l/m² 2,1 km/h (1 Bft) O-NO 58 ° 0 W/m² 9,6 °C 12,2 °C 4,8 km/h (1 Bft) 100 %
05.05.2026 23:40 12,2 °C 85 % 1012,4 hPa 0,0 l/m² 2,6 km/h (1 Bft) O 92 ° 0 W/m² 9,8 °C 12,2 °C 4,8 km/h (1 Bft) 100 %
05.05.2026 23:35 12,0 °C 86 % 1012,2 hPa 0,0 l/m² 1,8 km/h (1 Bft) O 86 ° 0 W/m² 9,7 °C 12,0 °C 4,8 km/h (1 Bft) 100 %
05.05.2026 23:30 11,9 °C 86 % 1012,3 hPa 0,0 l/m² 2,3 km/h (1 Bft) O 87 ° 0 W/m² 9,6 °C 11,9 °C 4,8 km/h (1 Bft) 100 %
05.05.2026 23:25 11,9 °C 86 % 1012,3 hPa 0,0 l/m² 1,8 km/h (1 Bft) O 83 ° 0 W/m² 9,6 °C 11,9 °C 4,8 km/h (1 Bft) 100 %
05.05.2026 23:20 12,0 °C 86 % 1012,1 hPa 0,0 l/m² 1,0 km/h (0 Bft) N-NW 329 ° 0 W/m² 9,7 °C 12,0 °C 3,2 km/h (1 Bft) 100 %
05.05.2026 23:15 12,2 °C 86 % 1012,3 hPa 0,0 l/m² 1,9 km/h (1 Bft) N-NW 329 ° 0 W/m² 9,9 °C 12,2 °C 4,8 km/h (1 Bft) 100 %
05.05.2026 23:10 12,3 °C 87 % 1012,4 hPa 0,0 l/m² 2,7 km/h (1 Bft) N-NW 328 ° 0 W/m² 10,2 °C 12,3 °C 4,8 km/h (1 Bft) 100 %
05.05.2026 23:05 12,5 °C 86 % 1012,4 hPa 0,0 l/m² 3,1 km/h (1 Bft) NW 326 ° 0 W/m² 10,2 °C 12,5 °C 6,4 km/h (2 Bft) 100 %
05.05.2026 23:00 12,6 °C 84 % 1012,4 hPa 0,0 l/m² 2,5 km/h (1 Bft) NW 320 ° 0 W/m² 10,0 °C 12,6 °C 6,4 km/h (2 Bft) 100 %
05.05.2026 22:55 12,3 °C 86 % 1012,5 hPa 0,0 l/m² 2,3 km/h (1 Bft) O-NO 65 ° 0 W/m² 10,0 °C 12,3 °C 8,0 km/h (2 Bft) 100 %
05.05.2026 22:50 12,3 °C 88 % 1012,4 hPa 0,0 l/m² 1,6 km/h (1 Bft) N 10 ° 0 W/m² 10,4 °C 12,3 °C 4,8 km/h (1 Bft) 100 %
05.05.2026 22:45 12,3 °C 88 % 1012,2 hPa 0,0 l/m² 1,9 km/h (1 Bft) N 4 ° 0 W/m² 10,4 °C 12,3 °C 6,4 km/h (2 Bft) 100 %
05.05.2026 22:40 12,4 °C 88 % 1012,4 hPa 0,0 l/m² 2,1 km/h (1 Bft) N 11 ° 0 W/m² 10,5 °C 12,4 °C 4,8 km/h (1 Bft) 100 %
05.05.2026 22:35 12,6 °C 87 % 1012,4 hPa 0,0 l/m² 3,1 km/h (1 Bft) N 11 ° 0 W/m² 10,5 °C 12,6 °C 4,8 km/h (1 Bft) 100 %
05.05.2026 22:30 12,8 °C 86 % 1012,2 hPa 0,0 l/m² 2,2 km/h (1 Bft) N-NO 12 ° 0 W/m² 10,5 °C 12,8 °C 3,2 km/h (1 Bft) 100 %
05.05.2026 22:25 12,8 °C 85 % 1012,2 hPa 0,0 l/m² 2,3 km/h (1 Bft) N-NO 12 ° 0 W/m² 10,3 °C 12,8 °C 4,8 km/h (1 Bft) 100 %
05.05.2026 22:20 12,8 °C 85 % 1012,2 hPa 0,0 l/m² 3,1 km/h (1 Bft) N-NW 328 ° 0 W/m² 10,3 °C 12,8 °C 6,4 km/h (2 Bft) 100 %
05.05.2026 22:15 12,8 °C 85 % 1012,2 hPa 0,0 l/m² 3,0 km/h (1 Bft) S-SO 155 ° 0 W/m² 10,3 °C 12,8 °C 8,0 km/h (2 Bft) 100 %
05.05.2026 22:10 12,8 °C 85 % 1012,1 hPa 0,0 l/m² 3,5 km/h (1 Bft) N-NW 346 ° 0 W/m² 10,3 °C 12,8 °C 12,9 km/h (3 Bft) 100 %
05.05.2026 22:05 12,8 °C 85 % 1012,1 hPa 0,0 l/m² 4,4 km/h (1 Bft) N 359 ° 0 W/m² 10,3 °C 12,8 °C 11,3 km/h (2 Bft) 100 %
05.05.2026 22:00 12,6 °C 86 % 1012,1 hPa 0,0 l/m² 3,1 km/h (1 Bft) O-SO 106 ° 0 W/m² 10,3 °C 12,6 °C 16,1 km/h (3 Bft) 100 %
05.05.2026 21:55 12,3 °C 87 % 1012,0 hPa 0,0 l/m² 4,8 km/h (1 Bft) O-NO 61 ° 0 W/m² 10,2 °C 12,3 °C 14,5 km/h (3 Bft) 100 %
05.05.2026 21:50 12,3 °C 88 % 1011,9 hPa 0,0 l/m² 2,9 km/h (1 Bft) N 354 ° 0 W/m² 10,4 °C 12,3 °C 4,8 km/h (1 Bft) 100 %
05.05.2026 21:45 12,5 °C 87 % 1011,9 hPa 0,0 l/m² 2,1 km/h (1 Bft) N 349 ° 0 W/m² 10,4 °C 12,5 °C 4,8 km/h (1 Bft) 100 %
05.05.2026 21:40 12,7 °C 86 % 1012,0 hPa 0,0 l/m² 4,0 km/h (1 Bft) N 350 ° 0 W/m² 10,4 °C 12,7 °C 6,4 km/h (2 Bft) 100 %
05.05.2026 21:35 12,8 °C 85 % 1012,0 hPa 0,0 l/m² 1,5 km/h (1 Bft) N 4 ° 0 W/m² 10,3 °C 12,8 °C 4,8 km/h (1 Bft) 100 %
05.05.2026 21:30 12,8 °C 85 % 1011,9 hPa 0,0 l/m² 2,6 km/h (1 Bft) N-NO 19 ° 0 W/m² 10,3 °C 12,8 °C 4,8 km/h (1 Bft) 100 %
05.05.2026 21:25 12,8 °C 84 % 1011,9 hPa 0,0 l/m² 3,2 km/h (1 Bft) N-NW 343 ° 0 W/m² 10,2 °C 12,8 °C 6,4 km/h (2 Bft) 100 %
05.05.2026 21:20 12,8 °C 86 % 1011,8 hPa 0,0 l/m² 0,8 km/h (0 Bft) N-NW 348 ° 0 W/m² 10,5 °C 12,8 °C 3,2 km/h (1 Bft) 100 %
05.05.2026 21:15 12,9 °C 84 % 1011,6 hPa 0,0 l/m² 3,5 km/h (1 Bft) N-NW 348 ° 0 W/m² 10,3 °C 12,9 °C 8,0 km/h (2 Bft) 100 %
05.05.2026 21:10 13,2 °C 84 % 1011,6 hPa 0,0 l/m² 1,7 km/h (1 Bft) NO 46 ° 0 W/m² 10,6 °C 13,2 °C 4,8 km/h (1 Bft) 100 %
05.05.2026 21:05 13,2 °C 84 % 1011,4 hPa 0,0 l/m² 5,5 km/h (1 Bft) N-NW 342 ° 0 W/m² 10,6 °C 13,2 °C 12,9 km/h (3 Bft) 100 %
05.05.2026 21:00 13,4 °C 85 % 1011,5 hPa 0,0 l/m² 3,0 km/h (1 Bft) NO 39 ° 0 W/m² 10,9 °C 13,4 °C 6,4 km/h (2 Bft) 100 %
05.05.2026 20:55 13,4 °C 84 % 1011,7 hPa 0,0 l/m² 4,3 km/h (1 Bft) N 354 ° 0 W/m² 10,8 °C 13,4 °C 11,3 km/h (2 Bft) 100 %
05.05.2026 20:50 13,2 °C 85 % 1011,6 hPa 0,0 l/m² 3,2 km/h (1 Bft) O 93 ° 0 W/m² 10,7 °C 13,2 °C 8,0 km/h (2 Bft) 100 %
05.05.2026 20:45 13,1 °C 87 % 1011,7 hPa 0,0 l/m² 2,7 km/h (1 Bft) N-NW 348 ° 0 W/m² 11,0 °C 13,1 °C 6,4 km/h (2 Bft) 100 %
05.05.2026 20:40 12,8 °C 88 % 1011,8 hPa 0,0 l/m² 2,5 km/h (1 Bft) O 93 ° 0 W/m² 10,9 °C 12,8 °C 6,4 km/h (2 Bft) 100 %
05.05.2026 20:35 12,8 °C 88 % 1011,6 hPa 0,0 l/m² 2,8 km/h (1 Bft) N 4 ° 0 W/m² 10,9 °C 12,8 °C 9,7 km/h (2 Bft) 100 %
05.05.2026 20:30 13,0 °C 87 % 1011,5 hPa 0,0 l/m² 2,9 km/h (1 Bft) N-NW 341 ° 6 W/m² 10,9 °C 13,0 °C 8,0 km/h (2 Bft) 100 %
05.05.2026 20:25 13,1 °C 87 % 1011,5 hPa 0,0 l/m² 2,9 km/h (1 Bft) N-NW 346 ° 6 W/m² 11,0 °C 13,1 °C 4,8 km/h (1 Bft) 100 %
05.05.2026 20:20 12,9 °C 86 % 1011,5 hPa 0,0 l/m² 4,0 km/h (1 Bft) NO 56 ° 11 W/m² 10,6 °C 12,9 °C 14,5 km/h (3 Bft) 100 %
05.05.2026 20:15 12,8 °C 88 % 1011,4 hPa 0,0 l/m² 3,2 km/h (1 Bft) N 10 ° 17 W/m² 10,9 °C 12,8 °C 6,4 km/h (2 Bft) 100 %
05.05.2026 20:10 12,9 °C 88 % 1011,3 hPa 0,0 l/m² 4,4 km/h (1 Bft) N-NO 26 ° 15 W/m² 11,0 °C 12,9 °C 12,9 km/h (3 Bft) 100 %
05.05.2026 20:05 12,9 °C 88 % 1011,5 hPa 0,0 l/m² 2,2 km/h (1 Bft) O-NO 77 ° 29 W/m² 11,0 °C 12,9 °C 11,3 km/h (2 Bft) 100 %
05.05.2026 20:00 12,8 °C 88 % 1011,3 hPa 0,0 l/m² 3,0 km/h (1 Bft) N-NW 340 ° 39 W/m² 10,9 °C 12,8 °C 8,0 km/h (2 Bft) 100 %
05.05.2026 19:55 12,8 °C 88 % 1011,3 hPa 0,0 l/m² 2,0 km/h (1 Bft) W-NW 297 ° 47 W/m² 10,9 °C 12,8 °C 4,8 km/h (1 Bft) 100 %
05.05.2026 19:50 12,7 °C 88 % 1011,3 hPa 0,0 l/m² 3,3 km/h (1 Bft) W 264 ° 42 W/m² 10,8 °C 12,7 °C 9,7 km/h (2 Bft) 100 %
05.05.2026 19:45 12,8 °C 88 % 1011,4 hPa 0,0 l/m² 3,2 km/h (1 Bft) N-NO 16 ° 42 W/m² 10,9 °C 12,8 °C 4,8 km/h (1 Bft) 100 %
05.05.2026 19:40 12,8 °C 87 % 1011,3 hPa 0,0 l/m² 4,7 km/h (1 Bft) NW 306 ° 33 W/m² 10,7 °C 12,8 °C 9,7 km/h (2 Bft) 100 %
05.05.2026 19:35 12,7 °C 87 % 1011,4 hPa 0,0 l/m² 3,5 km/h (1 Bft) O-NO 76 ° 37 W/m² 10,6 °C 12,7 °C 8,0 km/h (2 Bft) 100 %
05.05.2026 19:30 12,8 °C 89 % 1011,3 hPa 0,0 l/m² 2,6 km/h (1 Bft) N-NW 338 ° 38 W/m² 11,0 °C 12,8 °C 6,4 km/h (2 Bft) 100 %
05.05.2026 19:25 13,0 °C 87 % 1011,2 hPa 0,0 l/m² 3,3 km/h (1 Bft) N-NW 336 ° 42 W/m² 10,9 °C 13,0 °C 6,4 km/h (2 Bft) 100 %
05.05.2026 19:20 12,8 °C 87 % 1011,4 hPa 0,0 l/m² 6,3 km/h (2 Bft) W 274 ° 40 W/m² 10,7 °C 12,8 °C 14,5 km/h (3 Bft) 100 %
05.05.2026 19:15 12,4 °C 91 % 1011,3 hPa 0,0 l/m² 2,1 km/h (1 Bft) W-NW 292 ° 46 W/m² 11,0 °C 12,4 °C 6,4 km/h (2 Bft) 100 %
05.05.2026 19:10 12,6 °C 92 % 1011,2 hPa 0,0 l/m² 3,2 km/h (1 Bft) NO 39 ° 52 W/m² 11,3 °C 12,6 °C 6,4 km/h (2 Bft) 100 %
05.05.2026 19:05 12,7 °C 92 % 1011,3 hPa 0,0 l/m² 2,5 km/h (1 Bft) N 4 ° 61 W/m² 11,4 °C 12,7 °C 4,8 km/h (1 Bft) 100 %
05.05.2026 19:00 12,7 °C 92 % 1011,2 hPa 0,0 l/m² 3,2 km/h (1 Bft) N 4 ° 76 W/m² 11,4 °C 12,7 °C 8,0 km/h (2 Bft) 100 %
05.05.2026 18:55 12,9 °C 93 % 1011,2 hPa 0,0 l/m² 1,9 km/h (1 Bft) N-NW 346 ° 122 W/m² 11,8 °C 12,9 °C 4,8 km/h (1 Bft) 100 %
05.05.2026 18:50 12,8 °C 92 % 1011,2 hPa 0,0 l/m² 2,2 km/h (1 Bft) NW 324 ° 149 W/m² 11,5 °C 12,8 °C 3,2 km/h (1 Bft) 100 %
05.05.2026 18:45 12,8 °C 92 % 1011,2 hPa 0,0 l/m² 2,7 km/h (1 Bft) NW 324 ° 120 W/m² 11,5 °C 12,8 °C 4,8 km/h (1 Bft) 100 %
05.05.2026 18:40 13,0 °C 92 % 1011,3 hPa 0,0 l/m² 0,6 km/h (0 Bft) NW 324 ° 85 W/m² 11,7 °C 13,0 °C 3,2 km/h (1 Bft) 100 %
05.05.2026 18:35 13,1 °C 92 % 1011,4 hPa 0,0 l/m² 1,4 km/h (1 Bft) NW 324 ° 82 W/m² 11,8 °C 13,1 °C 6,4 km/h (2 Bft) 100 %
05.05.2026 18:30 13,0 °C 92 % 1011,4 hPa 0,2 l/m² 1,9 km/h (1 Bft) W-NW 294 ° 72 W/m² 11,7 °C 13,0 °C 4,8 km/h (1 Bft) 100 %
05.05.2026 18:25 12,9 °C 91 % 1011,3 hPa 0,0 l/m² 1,3 km/h (1 Bft) W 267 ° 61 W/m² 11,5 °C 12,9 °C 3,2 km/h (1 Bft) 100 %
05.05.2026 18:20 13,1 °C 92 % 1011,1 hPa 0,0 l/m² 3,0 km/h (1 Bft) W 266 ° 62 W/m² 11,8 °C 13,1 °C 6,4 km/h (2 Bft) 100 %
05.05.2026 18:15 13,4 °C 92 % 1011,1 hPa 0,0 l/m² 0,0 km/h (0 Bft) N-NW 330 ° 56 W/m² 12,1 °C 13,4 °C 0,0 km/h (0 Bft) 100 %
05.05.2026 18:10 13,4 °C 92 % 1011,0 hPa 0,0 l/m² 0,0 km/h (0 Bft) N-NW 330 ° 48 W/m² 12,1 °C 13,4 °C 0,0 km/h (0 Bft) 100 %
05.05.2026 18:05 13,4 °C 92 % 1010,9 hPa 0,0 l/m² 0,0 km/h (0 Bft) N-NW 330 ° 38 W/m² 12,1 °C 13,4 °C 0,0 km/h (0 Bft) 100 %
05.05.2026 18:00 13,4 °C 92 % 1010,8 hPa 0,0 l/m² 0,0 km/h (0 Bft) N-NW 330 ° 30 W/m² 12,1 °C 13,4 °C 0,0 km/h (0 Bft) 100 %
05.05.2026 17:55 13,4 °C 91 % 1010,7 hPa 0,0 l/m² 0,0 km/h (0 Bft) N-NW 330 ° 24 W/m² 12,0 °C 13,4 °C 0,0 km/h (0 Bft) 100 %
05.05.2026 17:50 13,6 °C 91 % 1010,7 hPa 0,0 l/m² 0,0 km/h (0 Bft) N-NW 330 ° 20 W/m² 12,2 °C 13,6 °C 0,0 km/h (0 Bft) 100 %
05.05.2026 17:45 13,6 °C 91 % 1010,9 hPa 0,0 l/m² 0,0 km/h (0 Bft) N-NW 330 ° 16 W/m² 12,2 °C 13,6 °C 0,0 km/h (0 Bft) 100 %
05.05.2026 17:40 13,7 °C 90 % 1010,9 hPa 0,0 l/m² 1,3 km/h (1 Bft) N-NW 330 ° 12 W/m² 12,1 °C 13,7 °C 3,2 km/h (1 Bft) 100 %
05.05.2026 17:35 13,9 °C 90 % 1011,0 hPa 0,2 l/m² 1,9 km/h (1 Bft) N-NW 330 ° 9 W/m² 12,3 °C 13,9 °C 4,8 km/h (1 Bft) 100 %
05.05.2026 17:30 14,2 °C 89 % 1011,0 hPa 0,4 l/m² 2,0 km/h (1 Bft) N-NW 332 ° 4 W/m² 12,4 °C 14,2 °C 4,8 km/h (1 Bft) 100 %
05.05.2026 17:25 14,5 °C 87 % 1011,2 hPa 0,2 l/m² 1,2 km/h (1 Bft) S-SW 210 ° 2 W/m² 12,4 °C 14,5 °C 3,2 km/h (1 Bft) 100 %
05.05.2026 17:20 14,8 °C 86 % 1011,2 hPa 0,0 l/m² 1,0 km/h (0 Bft) S-SW 201 ° 7 W/m² 12,5 °C 14,8 °C 3,2 km/h (1 Bft) 100 %
05.05.2026 17:15 15,2 °C 84 % 1010,8 hPa 0,4 l/m² 1,7 km/h (1 Bft) S 182 ° 6 W/m² 12,5 °C 15,2 °C 3,2 km/h (1 Bft) 100 %
05.05.2026 17:10 15,8 °C 82 % 1011,1 hPa 0,6 l/m² 2,7 km/h (1 Bft) O-SO 105 ° 3 W/m² 12,7 °C 15,8 °C 4,8 km/h (1 Bft) 100 %
05.05.2026 17:05 16,0 °C 78 % 1010,8 hPa 0,0 l/m² 1,8 km/h (1 Bft) O-SO 104 ° 10 W/m² 12,2 °C 16,0 °C 6,4 km/h (2 Bft) 100 %
05.05.2026 17:00 16,2 °C 78 % 1010,7 hPa 0,0 l/m² 1,9 km/h (1 Bft) O-SO 102 ° 27 W/m² 12,4 °C 16,2 °C 8,0 km/h (2 Bft) 100 %
05.05.2026 16:55 16,4 °C 78 % 1010,6 hPa 0,0 l/m² 2,8 km/h (1 Bft) O-SO 112 ° 64 W/m² 12,6 °C 16,4 °C 9,7 km/h (2 Bft) 100 %
05.05.2026 16:50 16,5 °C 77 % 1010,5 hPa 0,0 l/m² 1,1 km/h (1 Bft) O-SO 116 ° 101 W/m² 12,5 °C 16,5 °C 3,2 km/h (1 Bft) 100 %
05.05.2026 16:45 16,6 °C 77 % 1010,5 hPa 0,0 l/m² 0,5 km/h (0 Bft) O-SO 116 ° 129 W/m² 12,5 °C 16,6 °C 3,2 km/h (1 Bft) 100 %
05.05.2026 16:40 16,6 °C 79 % 1010,5 hPa 0,0 l/m² 0,8 km/h (0 Bft) O-SO 116 ° 187 W/m² 12,9 °C 16,6 °C 3,2 km/h (1 Bft) 100 %
05.05.2026 16:35 16,4 °C 79 % 1010,5 hPa 0,0 l/m² 1,1 km/h (1 Bft) O-SO 116 ° 207 W/m² 12,7 °C 16,4 °C 4,8 km/h (1 Bft) 100 %
05.05.2026 16:30 16,3 °C 79 % 1010,6 hPa 0,0 l/m² 1,6 km/h (1 Bft) O-SO 116 ° 207 W/m² 12,6 °C 16,3 °C 4,8 km/h (1 Bft) 100 %
05.05.2026 16:25 16,2 °C 78 % 1010,7 hPa 0,0 l/m² 0,4 km/h (0 Bft) O-SO 116 ° 99 W/m² 12,4 °C 16,2 °C 3,2 km/h (1 Bft) 100 %
05.05.2026 16:20 16,2 °C 78 % 1010,6 hPa 0,0 l/m² 2,4 km/h (1 Bft) O-SO 116 ° 138 W/m² 12,4 °C 16,2 °C 4,8 km/h (1 Bft) 100 %
05.05.2026 16:15 16,1 °C 78 % 1010,6 hPa 0,0 l/m² 3,5 km/h (1 Bft) O-SO 118 ° 212 W/m² 12,3 °C 16,1 °C 8,0 km/h (2 Bft) 100 %
05.05.2026 16:10 16,1 °C 79 % 1010,6 hPa 0,0 l/m² 3,3 km/h (1 Bft) O-SO 120 ° 250 W/m² 12,5 °C 16,1 °C 6,4 km/h (2 Bft) 100 %
05.05.2026 16:05 15,8 °C 79 % 1010,7 hPa 0,0 l/m² 4,6 km/h (1 Bft) O 85 ° 263 W/m² 12,2 °C 15,8 °C 6,4 km/h (2 Bft) 100 %
05.05.2026 16:00 15,8 °C 79 % 1010,7 hPa 0,0 l/m² 5,2 km/h (1 Bft) O-SO 105 ° 203 W/m² 12,2 °C 15,8 °C 9,7 km/h (2 Bft) 100 %
05.05.2026 15:55 16,0 °C 79 % 1010,8 hPa 0,0 l/m² 5,8 km/h (2 Bft) O-SO 116 ° 208 W/m² 12,4 °C 16,0 °C 12,9 km/h (3 Bft) 100 %
05.05.2026 15:50 16,0 °C 81 % 1010,8 hPa 0,0 l/m² 5,2 km/h (1 Bft) O-NO 77 ° 338 W/m² 12,7 °C 16,0 °C 11,3 km/h (2 Bft) 100 %
05.05.2026 15:45 15,8 °C 79 % 1010,8 hPa 0,0 l/m² 5,8 km/h (2 Bft) O-SO 108 ° 369 W/m² 12,2 °C 15,8 °C 9,7 km/h (2 Bft) 100 %
05.05.2026 15:40 15,6 °C 80 % 1010,9 hPa 0,0 l/m² 4,9 km/h (1 Bft) O 101 ° 307 W/m² 12,2 °C 15,6 °C 11,3 km/h (2 Bft) 100 %
05.05.2026 15:35 15,6 °C 81 % 1010,9 hPa 0,0 l/m² 4,1 km/h (1 Bft) O 100 ° 247 W/m² 12,3 °C 15,6 °C 6,4 km/h (2 Bft) 100 %
05.05.2026 15:30 15,4 °C 80 % 1010,9 hPa 0,0 l/m² 5,4 km/h (1 Bft) O-SO 120 ° 301 W/m² 12,0 °C 15,4 °C 9,7 km/h (2 Bft) 100 %
05.05.2026 15:25 15,3 °C 80 % 1011,0 hPa 0,0 l/m² 2,5 km/h (1 Bft) O 101 ° 285 W/m² 11,9 °C 15,3 °C 9,7 km/h (2 Bft) 100 %
05.05.2026 15:20 15,2 °C 81 % 1011,0 hPa 0,0 l/m² 1,8 km/h (1 Bft) O-SO 122 ° 168 W/m² 12,0 °C 15,2 °C 3,2 km/h (1 Bft) 100 %
05.05.2026 15:15 15,2 °C 81 % 1011,0 hPa 0,0 l/m² 2,4 km/h (1 Bft) O-SO 122 ° 150 W/m² 12,0 °C 15,2 °C 6,4 km/h (2 Bft) 100 %
05.05.2026 15:10 15,2 °C 81 % 1011,1 hPa 0,0 l/m² 2,5 km/h (1 Bft) O-SO 116 ° 130 W/m² 12,0 °C 15,2 °C 4,8 km/h (1 Bft) 100 %
05.05.2026 15:05 15,3 °C 81 % 1011,2 hPa 0,0 l/m² 2,8 km/h (1 Bft) O-SO 118 ° 159 W/m² 12,1 °C 15,3 °C 6,4 km/h (2 Bft) 100 %
05.05.2026 15:00 15,4 °C 80 % 1011,1 hPa 0,0 l/m² 5,3 km/h (1 Bft) O-SO 104 ° 327 W/m² 12,0 °C 15,4 °C 11,3 km/h (2 Bft) 100 %
05.05.2026 14:55 15,4 °C 81 % 1011,3 hPa 0,0 l/m² 4,2 km/h (1 Bft) S-SO 154 ° 556 W/m² 12,2 °C 15,4 °C 8,0 km/h (2 Bft) 100 %
05.05.2026 14:50 15,0 °C 82 % 1011,3 hPa 0,0 l/m² 2,1 km/h (1 Bft) O 98 ° 388 W/m² 12,0 °C 15,0 °C 4,8 km/h (1 Bft) 100 %
05.05.2026 14:45 14,8 °C 82 % 1011,4 hPa 0,0 l/m² 1,4 km/h (1 Bft) O 98 ° 242 W/m² 11,8 °C 14,8 °C 3,2 km/h (1 Bft) 100 %
05.05.2026 14:40 14,7 °C 82 % 1011,4 hPa 0,0 l/m² 1,2 km/h (1 Bft) O 98 ° 164 W/m² 11,7 °C 14,7 °C 3,2 km/h (1 Bft) 100 %
05.05.2026 14:35 14,7 °C 82 % 1011,5 hPa 0,0 l/m² 1,9 km/h (1 Bft) O 98 ° 157 W/m² 11,7 °C 14,7 °C 3,2 km/h (1 Bft) 100 %
05.05.2026 14:30 14,7 °C 83 % 1011,4 hPa 0,0 l/m² 2,5 km/h (1 Bft) O 98 ° 173 W/m² 11,8 °C 14,7 °C 4,8 km/h (1 Bft) 100 %
05.05.2026 14:25 14,7 °C 83 % 1011,5 hPa 0,0 l/m² 1,3 km/h (1 Bft) O 98 ° 189 W/m² 11,8 °C 14,7 °C 3,2 km/h (1 Bft) 100 %
05.05.2026 14:20 14,7 °C 83 % 1011,5 hPa 0,0 l/m² 1,7 km/h (1 Bft) O 98 ° 173 W/m² 11,8 °C 14,7 °C 4,8 km/h (1 Bft) 100 %
05.05.2026 14:15 14,7 °C 83 % 1011,6 hPa 0,0 l/m² 1,5 km/h (1 Bft) O 98 ° 160 W/m² 11,8 °C 14,7 °C 3,2 km/h (1 Bft) 100 %
05.05.2026 14:10 14,7 °C 84 % 1011,6 hPa 0,0 l/m² 2,3 km/h (1 Bft) O 98 ° 120 W/m² 12,0 °C 14,7 °C 6,4 km/h (2 Bft) 100 %
05.05.2026 14:05 14,8 °C 85 % 1011,6 hPa 0,0 l/m² 0,4 km/h (0 Bft) O-SO 109 ° 165 W/m² 12,3 °C 14,8 °C 3,2 km/h (1 Bft) 100 %
05.05.2026 14:00 14,7 °C 85 % 1011,7 hPa 0,0 l/m² 0,0 km/h (0 Bft) O-SO 109 ° 158 W/m² 12,2 °C 14,7 °C 0,0 km/h (0 Bft) 100 %
05.05.2026 13:55 14,7 °C 83 % 1011,6 hPa 0,0 l/m² 0,0 km/h (0 Bft) O-SO 109 ° 80 W/m² 11,8 °C 14,7 °C 0,0 km/h (0 Bft) 100 %
05.05.2026 13:50 14,8 °C 84 % 1011,8 hPa 0,0 l/m² 0,0 km/h (0 Bft) O-SO 109 ° 77 W/m² 12,1 °C 14,8 °C 0,0 km/h (0 Bft) 100 %
05.05.2026 13:45 14,7 °C 82 % 1011,9 hPa 0,0 l/m² 0,0 km/h (0 Bft) O-SO 109 ° 116 W/m² 11,7 °C 14,7 °C 0,0 km/h (0 Bft) 100 %
05.05.2026 13:40 14,7 °C 82 % 1011,9 hPa 0,0 l/m² 0,0 km/h (0 Bft) O-SO 109 ° 149 W/m² 11,7 °C 14,7 °C 0,0 km/h (0 Bft) 100 %
05.05.2026 13:35 14,8 °C 82 % 1011,8 hPa 0,0 l/m² 0,1 km/h (0 Bft) O-SO 109 ° 129 W/m² 11,8 °C 14,8 °C 1,6 km/h (1 Bft) 100 %
05.05.2026 13:30 14,8 °C 82 % 1011,8 hPa 0,0 l/m² 1,2 km/h (1 Bft) O-SO 109 ° 169 W/m² 11,8 °C 14,8 °C 3,2 km/h (1 Bft) 100 %
05.05.2026 13:25 14,8 °C 82 % 1011,8 hPa 0,0 l/m² 0,0 km/h (0 Bft) O-SO 109 ° 187 W/m² 11,8 °C 14,8 °C 0,0 km/h (0 Bft) 100 %
05.05.2026 13:20 14,7 °C 82 % 1011,9 hPa 0,0 l/m² 0,0 km/h (0 Bft) O-SO 109 ° 173 W/m² 11,7 °C 14,7 °C 0,0 km/h (0 Bft) 100 %
05.05.2026 13:15 14,6 °C 84 % 1011,9 hPa 0,0 l/m² 0,0 km/h (0 Bft) O-SO 109 ° 188 W/m² 11,9 °C 14,6 °C 0,0 km/h (0 Bft) 100 %
05.05.2026 13:10 14,4 °C 83 % 1011,9 hPa 0,0 l/m² 0,0 km/h (0 Bft) O-SO 109 ° 188 W/m² 11,5 °C 14,4 °C 0,0 km/h (0 Bft) 100 %
05.05.2026 13:05 14,4 °C 85 % 1012,0 hPa 0,0 l/m² 0,0 km/h (0 Bft) O-SO 109 ° 172 W/m² 11,9 °C 14,4 °C 0,0 km/h (0 Bft) 100 %
05.05.2026 13:00 14,4 °C 84 % 1011,9 hPa 0,0 l/m² 0,0 km/h (0 Bft) O-SO 109 ° 145 W/m² 11,7 °C 14,4 °C 0,0 km/h (0 Bft) 100 %
05.05.2026 12:55 14,5 °C 83 % 1012,1 hPa 0,0 l/m² 0,0 km/h (0 Bft) O-SO 109 ° 112 W/m² 11,6 °C 14,5 °C 0,0 km/h (0 Bft) 100 %
05.05.2026 12:50 14,6 °C 82 % 1012,1 hPa 0,0 l/m² 0,0 km/h (0 Bft) O-SO 109 ° 85 W/m² 11,6 °C 14,6 °C 0,0 km/h (0 Bft) 100 %
05.05.2026 12:45 14,7 °C 82 % 1012,1 hPa 0,0 l/m² 0,2 km/h (0 Bft) O-SO 109 ° 113 W/m² 11,7 °C 14,7 °C 1,6 km/h (1 Bft) 100 %
05.05.2026 12:40 14,6 °C 82 % 1012,2 hPa 0,0 l/m² 0,0 km/h (0 Bft) O-SO 109 ° 168 W/m² 11,6 °C 14,6 °C 0,0 km/h (0 Bft) 100 %
05.05.2026 12:35 14,6 °C 80 % 1012,1 hPa 0,0 l/m² 1,6 km/h (1 Bft) O-SO 109 ° 181 W/m² 11,2 °C 14,6 °C 4,8 km/h (1 Bft) 100 %
05.05.2026 12:30 14,7 °C 79 % 1012,1 hPa 0,0 l/m² 1,3 km/h (1 Bft) O-SO 109 ° 185 W/m² 11,1 °C 14,7 °C 3,2 km/h (1 Bft) 100 %
05.05.2026 12:25 14,8 °C 82 % 1012,0 hPa 0,0 l/m² 0,0 km/h (0 Bft) O-SO 109 ° 181 W/m² 11,8 °C 14,8 °C 0,0 km/h (0 Bft) 100 %
05.05.2026 12:20 14,8 °C 80 % 1012,1 hPa 0,0 l/m² 0,0 km/h (0 Bft) O-SO 109 ° 158 W/m² 11,4 °C 14,8 °C 0,0 km/h (0 Bft) 100 %
05.05.2026 12:15 14,9 °C 81 % 1012,1 hPa 0,0 l/m² 0,0 km/h (0 Bft) O-SO 109 ° 147 W/m² 11,7 °C 14,9 °C 0,0 km/h (0 Bft) 100 %
05.05.2026 12:10 14,9 °C 80 % 1012,0 hPa 0,0 l/m² 0,1 km/h (0 Bft) O-SO 109 ° 144 W/m² 11,5 °C 14,9 °C 1,6 km/h (1 Bft) 100 %
05.05.2026 12:05 14,8 °C 78 % 1012,1 hPa 0,0 l/m² 0,0 km/h (0 Bft) O-SO 109 ° 148 W/m² 11,0 °C 14,8 °C 0,0 km/h (0 Bft) 100 %
05.05.2026 12:00 14,7 °C 76 % 1012,1 hPa 0,0 l/m² 0,4 km/h (0 Bft) O-SO 109 ° 191 W/m² 10,5 °C 14,7 °C 3,2 km/h (1 Bft) 100 %
05.05.2026 11:55 14,7 °C 78 % 1012,2 hPa 0,0 l/m² 0,3 km/h (0 Bft) O-SO 109 ° 238 W/m² 10,9 °C 14,7 °C 1,6 km/h (1 Bft) 100 %
05.05.2026 11:50 14,6 °C 78 % 1012,2 hPa 0,0 l/m² 1,4 km/h (1 Bft) O-SO 109 ° 241 W/m² 10,8 °C 14,6 °C 3,2 km/h (1 Bft) 100 %
05.05.2026 11:45 14,6 °C 78 % 1012,2 hPa 0,0 l/m² 1,8 km/h (1 Bft) O-SO 109 ° 217 W/m² 10,8 °C 14,6 °C 4,8 km/h (1 Bft) 100 %
05.05.2026 11:40 14,7 °C 78 % 1012,2 hPa 0,0 l/m² 1,0 km/h (0 Bft) O-SO 109 ° 207 W/m² 10,9 °C 14,7 °C 3,2 km/h (1 Bft) 100 %
05.05.2026 11:35 14,6 °C 80 % 1012,2 hPa 0,0 l/m² 0,5 km/h (0 Bft) O-SO 109 ° 209 W/m² 11,2 °C 14,6 °C 3,2 km/h (1 Bft) 100 %
05.05.2026 11:30 14,5 °C 79 % 1012,2 hPa 0,0 l/m² 0,9 km/h (0 Bft) O-SO 109 ° 219 W/m² 10,9 °C 14,5 °C 3,2 km/h (1 Bft) 100 %
05.05.2026 11:25 14,4 °C 80 % 1012,3 hPa 0,0 l/m² 0,7 km/h (0 Bft) O-SO 108 ° 230 W/m² 11,0 °C 14,4 °C 3,2 km/h (1 Bft) 100 %
05.05.2026 11:20 14,3 °C 80 % 1012,3 hPa 0,0 l/m² 2,1 km/h (1 Bft) O-SO 109 ° 249 W/m² 10,9 °C 14,3 °C 4,8 km/h (1 Bft) 100 %
05.05.2026 11:15 14,3 °C 81 % 1012,4 hPa 0,0 l/m² 3,4 km/h (1 Bft) O-SO 109 ° 259 W/m² 11,1 °C 14,3 °C 6,4 km/h (2 Bft) 100 %
05.05.2026 11:10 14,2 °C 82 % 1012,4 hPa 0,0 l/m² 2,8 km/h (1 Bft) SO 125 ° 293 W/m² 11,2 °C 14,2 °C 6,4 km/h (2 Bft) 100 %
05.05.2026 11:05 14,0 °C 80 % 1012,5 hPa 0,0 l/m² 3,4 km/h (1 Bft) O-SO 119 ° 303 W/m² 10,6 °C 14,0 °C 6,4 km/h (2 Bft) 100 %
05.05.2026 11:00 14,0 °C 83 % 1012,4 hPa 0,0 l/m² 2,4 km/h (1 Bft) SO 131 ° 312 W/m² 11,2 °C 14,0 °C 4,8 km/h (1 Bft) 100 %
05.05.2026 10:55 13,9 °C 85 % 1012,5 hPa 0,0 l/m² 2,4 km/h (1 Bft) SO 133 ° 289 W/m² 11,4 °C 13,9 °C 6,4 km/h (2 Bft) 100 %
05.05.2026 10:50 13,8 °C 86 % 1012,5 hPa 0,0 l/m² 0,5 km/h (0 Bft) S 180 ° 225 W/m² 11,5 °C 13,8 °C 1,6 km/h (1 Bft) 100 %
05.05.2026 10:45 13,7 °C 85 % 1012,5 hPa 0,0 l/m² 0,7 km/h (0 Bft) S 180 ° 168 W/m² 11,2 °C 13,7 °C 3,2 km/h (1 Bft) 100 %
05.05.2026 10:40 13,6 °C 85 % 1012,6 hPa 0,0 l/m² 1,2 km/h (1 Bft) S 180 ° 150 W/m² 11,1 °C 13,6 °C 3,2 km/h (1 Bft) 100 %
05.05.2026 10:35 13,5 °C 87 % 1012,6 hPa 0,0 l/m² 1,0 km/h (0 Bft) S 180 ° 189 W/m² 11,4 °C 13,5 °C 3,2 km/h (1 Bft) 100 %
05.05.2026 10:30 13,3 °C 87 % 1012,6 hPa 0,0 l/m² 1,7 km/h (1 Bft) S 181 ° 199 W/m² 11,2 °C 13,3 °C 3,2 km/h (1 Bft) 100 %
05.05.2026 10:25 13,2 °C 88 % 1012,6 hPa 0,0 l/m² 0,8 km/h (0 Bft) S 181 ° 196 W/m² 11,3 °C 13,2 °C 3,2 km/h (1 Bft) 100 %
05.05.2026 10:20 12,9 °C 87 % 1012,6 hPa 0,0 l/m² 2,1 km/h (1 Bft) S 181 ° 223 W/m² 10,8 °C 12,9 °C 4,8 km/h (1 Bft) 100 %
05.05.2026 10:15 12,8 °C 88 % 1012,6 hPa 0,0 l/m² 3,6 km/h (1 Bft) S 181 ° 270 W/m² 10,9 °C 12,8 °C 9,7 km/h (2 Bft) 100 %
05.05.2026 10:10 12,6 °C 89 % 1012,8 hPa 0,0 l/m² 2,9 km/h (1 Bft) O 93 ° 242 W/m² 10,8 °C 12,6 °C 6,4 km/h (2 Bft) 100 %
05.05.2026 10:05 12,4 °C 89 % 1012,7 hPa 0,0 l/m² 3,6 km/h (1 Bft) O-SO 109 ° 199 W/m² 10,6 °C 12,4 °C 6,4 km/h (2 Bft) 100 %
05.05.2026 10:00 12,4 °C 90 % 1012,7 hPa 0,0 l/m² 3,0 km/h (1 Bft) O 93 ° 161 W/m² 10,8 °C 12,4 °C 4,8 km/h (1 Bft) 100 %
05.05.2026 09:55 12,3 °C 89 % 1012,8 hPa 0,0 l/m² 2,3 km/h (1 Bft) O 79 ° 172 W/m² 10,5 °C 12,3 °C 3,2 km/h (1 Bft) 100 %
05.05.2026 09:50 12,2 °C 89 % 1012,8 hPa 0,0 l/m² 1,7 km/h (1 Bft) O 79 ° 157 W/m² 10,4 °C 12,2 °C 3,2 km/h (1 Bft) 100 %
05.05.2026 09:45 12,2 °C 89 % 1012,9 hPa 0,0 l/m² 1,4 km/h (1 Bft) O 79 ° 130 W/m² 10,4 °C 12,2 °C 4,8 km/h (1 Bft) 100 %
05.05.2026 09:40 12,1 °C 90 % 1013,0 hPa 0,0 l/m² 0,0 km/h (0 Bft) O-NO 75 ° 141 W/m² 10,5 °C 12,1 °C 0,0 km/h (0 Bft) 100 %
05.05.2026 09:35 11,9 °C 90 % 1013,0 hPa 0,0 l/m² 0,3 km/h (0 Bft) O-NO 75 ° 187 W/m² 10,3 °C 11,9 °C 3,2 km/h (1 Bft) 100 %
05.05.2026 09:30 11,8 °C 90 % 1012,9 hPa 0,0 l/m² 0,2 km/h (0 Bft) O-NO 75 ° 153 W/m² 10,2 °C 11,8 °C 1,6 km/h (1 Bft) 100 %
05.05.2026 09:25 11,7 °C 90 % 1013,0 hPa 0,0 l/m² 0,0 km/h (0 Bft) O-NO 75 ° 108 W/m² 10,1 °C 11,7 °C 0,0 km/h (0 Bft) 100 %
05.05.2026 09:20 11,7 °C 90 % 1013,1 hPa 0,0 l/m² 0,0 km/h (0 Bft) O-NO 75 ° 80 W/m² 10,1 °C 11,7 °C 1,6 km/h (1 Bft) 100 %
05.05.2026 09:15 11,6 °C 90 % 1013,1 hPa 0,0 l/m² 0,0 km/h (0 Bft) O-NO 75 ° 69 W/m² 10,0 °C 11,6 °C 0,0 km/h (0 Bft) 100 %
05.05.2026 09:10 11,6 °C 90 % 1013,1 hPa 0,0 l/m² 0,0 km/h (0 Bft) O-NO 75 ° 70 W/m² 10,0 °C 11,6 °C 0,0 km/h (0 Bft) 100 %
05.05.2026 09:05 11,6 °C 90 % 1013,1 hPa 0,0 l/m² 0,1 km/h (0 Bft) O-NO 75 ° 88 W/m² 10,0 °C 11,6 °C 1,6 km/h (1 Bft) 100 %
05.05.2026 09:00 11,5 °C 90 % 1013,1 hPa 0,2 l/m² 0,0 km/h (0 Bft) O-NO 75 ° 105 W/m² 9,9 °C 11,5 °C 0,0 km/h (0 Bft) 100 %
05.05.2026 08:55 11,5 °C 90 % 1013,1 hPa 0,0 l/m² 0,0 km/h (0 Bft) O-NO 75 ° 103 W/m² 9,9 °C 11,5 °C 0,0 km/h (0 Bft) 100 %
05.05.2026 08:50 11,4 °C 90 % 1013,1 hPa 0,0 l/m² 0,0 km/h (0 Bft) O-NO 75 ° 86 W/m² 9,8 °C 11,4 °C 0,0 km/h (0 Bft) 100 %
05.05.2026 08:45 11,4 °C 89 % 1013,1 hPa 0,0 l/m² 0,0 km/h (0 Bft) O-NO 75 ° 73 W/m² 9,7 °C 11,4 °C 0,0 km/h (0 Bft) 100 %
05.05.2026 08:40 11,5 °C 89 % 1013,1 hPa 0,0 l/m² 0,0 km/h (0 Bft) O-NO 75 ° 70 W/m² 9,8 °C 11,5 °C 0,0 km/h (0 Bft) 100 %
05.05.2026 08:35 11,4 °C 89 % 1013,2 hPa 0,0 l/m² 0,0 km/h (0 Bft) O-NO 75 ° 66 W/m² 9,7 °C 11,4 °C 0,0 km/h (0 Bft) 100 %
05.05.2026 08:30 11,4 °C 88 % 1013,2 hPa 0,0 l/m² 0,0 km/h (0 Bft) O-NO 75 ° 53 W/m² 9,5 °C 11,4 °C 0,0 km/h (0 Bft) 100 %
05.05.2026 08:25 11,4 °C 88 % 1013,3 hPa 0,0 l/m² 0,0 km/h (0 Bft) O-NO 75 ° 43 W/m² 9,5 °C 11,4 °C 0,0 km/h (0 Bft) 100 %
05.05.2026 08:20 11,4 °C 87 % 1013,3 hPa 0,0 l/m² 0,0 km/h (0 Bft) O-NO 75 ° 43 W/m² 9,3 °C 11,4 °C 0,0 km/h (0 Bft) 100 %
05.05.2026 08:15 11,3 °C 87 % 1013,2 hPa 0,0 l/m² 0,5 km/h (0 Bft) O-NO 75 ° 41 W/m² 9,2 °C 11,3 °C 3,2 km/h (1 Bft) 100 %
05.05.2026 08:10 11,4 °C 87 % 1013,2 hPa 0,0 l/m² 1,9 km/h (1 Bft) O-NO 75 ° 36 W/m² 9,3 °C 11,4 °C 3,2 km/h (1 Bft) 100 %
05.05.2026 08:05 11,7 °C 87 % 1013,2 hPa 0,0 l/m² 1,0 km/h (0 Bft) O-NO 75 ° 28 W/m² 9,6 °C 11,7 °C 3,2 km/h (1 Bft) 100 %
05.05.2026 08:00 11,8 °C 87 % 1013,1 hPa 0,0 l/m² 0,6 km/h (0 Bft) O-NO 75 ° 32 W/m² 9,7 °C 11,8 °C 1,6 km/h (1 Bft) 100 %
05.05.2026 07:55 11,7 °C 88 % 1013,1 hPa 0,0 l/m² 0,0 km/h (0 Bft) O-NO 75 ° 44 W/m² 9,8 °C 11,7 °C 0,0 km/h (0 Bft) 100 %
05.05.2026 07:50 11,6 °C 88 % 1013,1 hPa 0,0 l/m² 0,0 km/h (0 Bft) O-NO 75 ° 49 W/m² 9,7 °C 11,6 °C 0,0 km/h (0 Bft) 100 %
05.05.2026 07:45 11,5 °C 89 % 1013,1 hPa 0,0 l/m² 0,0 km/h (0 Bft) O-NO 75 ° 55 W/m² 9,8 °C 11,5 °C 0,0 km/h (0 Bft) 100 %
05.05.2026 07:40 11,3 °C 89 % 1013,0 hPa 0,0 l/m² 0,0 km/h (0 Bft) O-NO 75 ° 79 W/m² 9,6 °C 11,3 °C 0,0 km/h (0 Bft) 100 %
05.05.2026 07:35 11,2 °C 89 % 1013,0 hPa 0,0 l/m² 0,0 km/h (0 Bft) O-NO 75 ° 94 W/m² 9,5 °C 11,2 °C 0,0 km/h (0 Bft) 100 %
05.05.2026 07:30 11,0 °C 89 % 1013,1 hPa 0,0 l/m² 0,0 km/h (0 Bft) O-NO 75 ° 73 W/m² 9,3 °C 11,0 °C 0,0 km/h (0 Bft) 100 %
05.05.2026 07:25 10,9 °C 88 % 1013,1 hPa 0,0 l/m² 0,0 km/h (0 Bft) O-NO 75 ° 56 W/m² 9,0 °C 10,9 °C 0,0 km/h (0 Bft) 100 %
05.05.2026 07:20 10,7 °C 89 % 1013,1 hPa 0,0 l/m² 0,0 km/h (0 Bft) O-NO 75 ° 43 W/m² 9,0 °C 10,7 °C 0,0 km/h (0 Bft) 100 %
05.05.2026 07:15 10,6 °C 89 % 1013,1 hPa 0,0 l/m² 0,0 km/h (0 Bft) O-NO 75 ° 32 W/m² 8,9 °C 10,6 °C 0,0 km/h (0 Bft) 100 %
05.05.2026 07:10 10,6 °C 89 % 1013,0 hPa 0,0 l/m² 0,5 km/h (0 Bft) O-NO 75 ° 24 W/m² 8,9 °C 10,6 °C 3,2 km/h (1 Bft) 100 %
05.05.2026 07:05 10,4 °C 89 % 1013,0 hPa 0,0 l/m² 2,1 km/h (1 Bft) O-NO 75 ° 21 W/m² 8,7 °C 10,4 °C 3,2 km/h (1 Bft) 100 %
05.05.2026 07:00 10,3 °C 89 % 1013,1 hPa 0,0 l/m² 0,7 km/h (0 Bft) O-NO 75 ° 20 W/m² 8,6 °C 10,3 °C 3,2 km/h (1 Bft) 100 %
05.05.2026 06:55 10,2 °C 89 % 1013,2 hPa 0,0 l/m² 0,0 km/h (0 Bft) O-NO 75 ° 14 W/m² 8,5 °C 10,2 °C 0,0 km/h (0 Bft) 100 %
05.05.2026 06:50 10,2 °C 89 % 1013,2 hPa 0,0 l/m² 0,0 km/h (0 Bft) O-NO 75 ° 9 W/m² 8,5 °C 10,2 °C 0,0 km/h (0 Bft) 100 %
05.05.2026 06:45 10,3 °C 89 % 1013,1 hPa 0,0 l/m² 0,0 km/h (0 Bft) O-NO 75 ° 7 W/m² 8,6 °C 10,3 °C 0,0 km/h (0 Bft) 100 %
05.05.2026 06:40 10,3 °C 89 % 1013,2 hPa 0,0 l/m² 0,0 km/h (0 Bft) O-NO 75 ° 5 W/m² 8,6 °C 10,3 °C 0,0 km/h (0 Bft) 100 %
05.05.2026 06:35 10,3 °C 88 % 1013,2 hPa 0,0 l/m² 0,0 km/h (0 Bft) O-NO 75 ° 6 W/m² 8,4 °C 10,3 °C 0,0 km/h (0 Bft) 100 %
05.05.2026 06:30 10,2 °C 88 % 1013,3 hPa 0,0 l/m² 0,0 km/h (0 Bft) O-NO 75 ° 7 W/m² 8,3 °C 10,2 °C 0,0 km/h (0 Bft) 100 %
05.05.2026 06:25 10,3 °C 88 % 1013,4 hPa 0,0 l/m² 0,0 km/h (0 Bft) O-NO 75 ° 5 W/m² 8,4 °C 10,3 °C 0,0 km/h (0 Bft) 100 %
05.05.2026 06:20 10,3 °C 88 % 1013,3 hPa 0,0 l/m² 0,0 km/h (0 Bft) O-NO 75 ° 0 W/m² 8,4 °C 10,3 °C 0,0 km/h (0 Bft) 100 %
05.05.2026 06:15 10,3 °C 88 % 1013,2 hPa 0,0 l/m² 0,0 km/h (0 Bft) O-NO 75 ° 0 W/m² 8,4 °C 10,3 °C 0,0 km/h (0 Bft) 100 %
05.05.2026 06:10 10,5 °C 87 % 1013,0 hPa 0,0 l/m² 0,0 km/h (0 Bft) O-NO 75 ° 0 W/m² 8,4 °C 10,5 °C 0,0 km/h (0 Bft) 100 %
05.05.2026 06:05 10,6 °C 87 % 1013,1 hPa 0,0 l/m² 0,0 km/h (0 Bft) O-NO 75 ° 0 W/m² 8,5 °C 10,6 °C 0,0 km/h (0 Bft) 100 %
05.05.2026 06:00 10,8 °C 86 % 1013,1 hPa 0,0 l/m² 0,0 km/h (0 Bft) O-NO 75 ° 0 W/m² 8,6 °C 10,8 °C 0,0 km/h (0 Bft) 100 %
_ Min-Zeit 06:25 12:00 05:20 - 06:00 - - - 06:30 06:30 06:00 06:00
Minimum _ 10,2 °C 76 % 1010,3 hPa - 0,0 km/h (0 Bft) - - - 8,3 °C 10,2 °C 0,0 km/h (0 Bft) 100 %
_ Max-Zeit 16:40 18:55 06:25 17:10 19:20 - - 14:55 16:40 16:40 22:00 06:00
Maximum _ 16,6 °C 93 % 1013,4 hPa 0,6 l/m² 6,3 km/h
W (2 Bft)
- - 556 W/m² 12,9 °C 16,6 °C 16,1 km/h
O (3 Bft)
100 %
Durchschnitt _ 12,8 °C 85 % 1011,9 hPa #2,2 l/m² 1,7 km/h (1 Bft) N-NW - 0 W/m² 10,3 °C 12,8 °C 4,2 km/h (1 Bft) 100 %
Elztal-Wetter